createdAt,value
2022-11-01T00:00:21.033Z,42.28
2022-11-01T00:00:51.047Z,42.32
2022-11-01T00:01:21.087Z,42.33
2022-11-01T00:01:51.205Z,42.39
2022-11-01T00:02:21.223Z,42.33
2022-11-01T00:02:51.200Z,42.36
2022-11-01T00:03:21.211Z,42.36
2022-11-01T00:03:51.219Z,42.39
2022-11-01T00:04:21.227Z,42.33
2022-11-01T00:04:51.230Z,42.31
2022-11-01T00:05:21.241Z,42.37
2022-11-01T00:05:51.247Z,42.36
2022-11-01T00:06:21.257Z,42.33
2022-11-01T00:06:51.262Z,42.34
2022-11-01T00:07:21.261Z,42.33
2022-11-01T00:07:51.259Z,42.36
2022-11-01T00:08:21.262Z,42.32
2022-11-01T00:08:51.269Z,42.30
2022-11-01T00:09:21.281Z,42.33
2022-11-01T00:09:51.280Z,42.33
2022-11-01T00:10:21.283Z,42.33
2022-11-01T00:10:51.307Z,42.34
2022-11-01T00:11:21.288Z,42.34
2022-11-01T00:11:51.303Z,42.37
2022-11-01T00:12:21.304Z,42.33
2022-11-01T00:12:51.303Z,42.30
2022-11-01T00:13:21.303Z,42.34
2022-11-01T00:13:51.320Z,42.33
2022-11-01T00:14:21.324Z,42.33
2022-11-01T00:14:51.330Z,42.37
2022-11-01T00:15:21.339Z,42.33
2022-11-01T00:15:51.424Z,42.37
2022-11-01T00:16:21.512Z,42.33
2022-11-01T00:16:51.596Z,42.35
2022-11-01T00:17:21.682Z,42.34
2022-11-01T00:17:51.766Z,42.36
2022-11-01T00:18:21.848Z,42.34
2022-11-01T00:18:51.932Z,42.33
2022-11-01T00:19:22.017Z,42.36
2022-11-01T00:19:52.098Z,42.36
2022-11-01T00:20:22.181Z,42.37
2022-11-01T00:20:52.268Z,42.36
2022-11-01T00:21:22.354Z,42.37
2022-11-01T00:21:52.431Z,42.30
2022-11-01T00:22:22.472Z,42.33
2022-11-01T00:22:52.559Z,42.32
2022-11-01T00:23:22.642Z,42.33
2022-11-01T00:23:52.742Z,42.28
2022-11-01T00:24:22.821Z,42.31
2022-11-01T00:24:54.930Z,42.35
2022-11-01T00:25:22.996Z,42.32
2022-11-01T00:25:53.009Z,42.32
2022-11-01T00:26:23.029Z,42.33
2022-11-01T00:26:53.021Z,42.29
2022-11-01T00:27:23.016Z,42.29
2022-11-01T00:27:53.019Z,42.30
2022-11-01T00:28:23.030Z,42.33
2022-11-01T00:28:53.033Z,42.29
2022-11-01T00:29:23.036Z,42.30
2022-11-01T00:29:53.041Z,42.33
2022-11-01T00:30:23.048Z,42.30
2022-11-01T00:30:53.055Z,42.29
2022-11-01T00:31:23.059Z,42.30
2022-11-01T00:31:53.060Z,42.34
2022-11-01T00:32:23.066Z,42.33
2022-11-01T00:32:53.082Z,42.32
2022-11-01T00:33:23.093Z,42.31
2022-11-01T00:33:53.093Z,42.33
2022-11-01T00:34:23.096Z,42.33
2022-11-01T00:34:53.109Z,42.33
2022-11-01T00:35:23.115Z,42.33
2022-11-01T00:35:53.124Z,42.35
2022-11-01T00:36:23.124Z,42.37
2022-11-01T00:36:53.129Z,42.37
2022-11-01T00:37:23.135Z,42.35
2022-11-01T00:37:53.144Z,42.33
2022-11-01T00:38:23.152Z,42.37
2022-11-01T00:38:53.159Z,42.34
2022-11-01T00:39:27.479Z,42.38
2022-11-01T00:39:53.248Z,42.34
2022-11-01T00:40:23.253Z,42.34
2022-11-01T00:40:53.255Z,42.31
2022-11-01T00:41:23.251Z,42.36
2022-11-01T00:41:53.288Z,42.31
2022-11-01T00:42:23.274Z,42.38
2022-11-01T00:42:53.283Z,42.39
2022-11-01T00:43:23.296Z,42.31
2022-11-01T00:43:53.290Z,42.33
2022-11-01T00:44:23.299Z,42.39
2022-11-01T00:44:53.307Z,42.34
2022-11-01T00:45:23.321Z,42.33
2022-11-01T00:45:53.329Z,42.31
2022-11-01T00:46:23.336Z,42.33
2022-11-01T00:46:53.356Z,42.31
2022-11-01T00:47:23.354Z,42.34
2022-11-01T00:47:53.375Z,42.36
2022-11-01T00:48:23.377Z,42.34
2022-11-01T00:48:53.373Z,42.27
2022-11-01T00:49:23.386Z,42.34
2022-11-01T00:49:53.397Z,42.30
2022-11-01T00:50:23.426Z,42.34
2022-11-01T00:50:53.430Z,42.34
2022-11-01T00:51:23.433Z,42.33
2022-11-01T00:51:53.428Z,42.35
2022-11-01T00:52:23.426Z,42.35
2022-11-01T00:52:53.444Z,42.36
2022-11-01T00:53:23.452Z,42.38
2022-11-01T00:53:53.459Z,42.35
2022-11-01T00:54:23.472Z,42.34
2022-11-01T00:54:53.470Z,42.30
2022-11-01T00:55:23.500Z,42.38
2022-11-01T00:55:53.508Z,42.33
2022-11-01T00:56:23.501Z,42.34
2022-11-01T00:56:53.513Z,42.35
2022-11-01T00:57:23.544Z,42.31
2022-11-01T00:57:53.526Z,42.33
2022-11-01T00:58:23.538Z,42.35
2022-11-01T00:58:53.541Z,42.34
2022-11-01T00:59:23.548Z,42.35
2022-11-01T01:00:23.677Z,42.35
2022-11-01T01:00:53.701Z,42.40
2022-11-01T01:01:23.850Z,42.38
2022-11-01T01:01:53.902Z,42.35
2022-11-01T01:02:23.882Z,42.37
2022-11-01T01:02:53.921Z,42.35
2022-11-01T01:03:23.927Z,42.32
2022-11-01T01:03:53.936Z,42.38
2022-11-01T01:04:23.945Z,42.35
2022-11-01T01:04:53.956Z,42.32
2022-11-01T01:05:23.964Z,42.38
2022-11-01T01:05:53.969Z,42.36
2022-11-01T01:06:23.967Z,42.34
2022-11-01T01:06:53.971Z,42.34
2022-11-01T01:07:23.979Z,42.37
2022-11-01T01:07:53.983Z,42.38
2022-11-01T01:08:23.990Z,42.36
2022-11-01T01:08:53.990Z,42.36
2022-11-01T01:09:24.048Z,42.35
2022-11-01T01:09:54.060Z,42.35
2022-11-01T01:10:24.061Z,42.32
2022-11-01T01:10:54.080Z,42.36
2022-11-01T01:11:24.079Z,42.38
2022-11-01T01:11:54.090Z,42.40
2022-11-01T01:12:24.093Z,42.35
2022-11-01T01:12:54.134Z,42.42
2022-11-01T01:13:24.116Z,42.37
2022-11-01T01:13:54.122Z,42.34
2022-11-01T01:14:27.459Z,42.31
2022-11-01T01:14:54.128Z,42.36
2022-11-01T01:15:24.130Z,42.35
2022-11-01T01:15:54.224Z,42.35
2022-11-01T01:16:24.311Z,42.37
2022-11-01T01:16:54.386Z,42.36
2022-11-01T01:17:25.252Z,42.33
2022-11-01T01:17:54.537Z,42.37
2022-11-01T01:18:24.624Z,42.36
2022-11-01T01:18:54.698Z,42.35
2022-11-01T01:19:24.780Z,42.32
2022-11-01T01:19:54.877Z,42.37
2022-11-01T01:20:24.959Z,42.31
2022-11-01T01:20:55.038Z,42.41
2022-11-01T01:21:25.124Z,42.36
2022-11-01T01:21:55.215Z,42.36
2022-11-01T01:22:25.295Z,42.35
2022-11-01T01:22:55.389Z,42.40
2022-11-01T01:23:25.479Z,42.36
2022-11-01T01:23:55.547Z,42.36
2022-11-01T01:24:25.655Z,42.39
2022-11-01T01:24:55.740Z,42.38
2022-11-01T01:25:25.828Z,42.36
2022-11-01T01:25:55.838Z,42.36
2022-11-01T01:26:25.846Z,42.36
2022-11-01T01:26:55.847Z,42.36
2022-11-01T01:27:25.851Z,42.36
2022-11-01T01:27:55.852Z,42.31
2022-11-01T01:28:25.884Z,42.32
2022-11-01T01:28:55.867Z,42.28
2022-11-01T01:29:25.884Z,42.32
2022-11-01T01:29:55.887Z,42.34
2022-11-01T01:30:25.892Z,42.35
2022-11-01T01:30:55.896Z,42.36
2022-11-01T01:31:25.898Z,42.32
2022-11-01T01:31:55.908Z,42.34
2022-11-01T01:32:25.910Z,42.34
2022-11-01T01:32:55.917Z,42.38
2022-11-01T01:33:25.927Z,42.36
2022-11-01T01:33:55.937Z,42.35
2022-11-01T01:34:25.963Z,42.35
2022-11-01T01:34:55.970Z,42.32
2022-11-01T01:35:25.972Z,42.32
2022-11-01T01:35:55.982Z,42.36
2022-11-01T01:36:25.986Z,42.36
2022-11-01T01:36:55.989Z,42.31
2022-11-01T01:37:25.994Z,42.34
2022-11-01T01:37:55.998Z,42.35
2022-11-01T01:38:26.013Z,42.35
2022-11-01T01:38:56.028Z,42.36
2022-11-01T01:39:26.051Z,42.35
2022-11-01T01:39:56.050Z,42.35
2022-11-01T01:40:26.067Z,42.38
2022-11-01T01:40:56.073Z,42.34
2022-11-01T01:41:26.091Z,42.33
2022-11-01T01:41:56.098Z,42.39
2022-11-01T01:42:26.111Z,42.39
2022-11-01T01:42:56.116Z,42.37
2022-11-01T01:43:26.127Z,42.41
2022-11-01T01:43:56.155Z,42.36
2022-11-01T01:44:26.147Z,42.36
2022-11-01T01:44:56.149Z,42.37
2022-11-01T01:45:26.160Z,42.37
2022-11-01T01:45:56.173Z,42.33
2022-11-01T01:46:26.196Z,42.32
2022-11-01T01:46:56.198Z,42.37
2022-11-01T01:47:26.192Z,42.34
2022-11-01T01:47:56.194Z,42.35
2022-11-01T01:48:26.194Z,42.34
2022-11-01T01:48:56.206Z,42.33
2022-11-01T01:49:26.211Z,42.33
2022-11-01T01:49:56.229Z,42.33
2022-11-01T01:50:26.228Z,42.36
2022-11-01T01:50:56.242Z,42.36
2022-11-01T01:51:26.240Z,42.32
2022-11-01T01:51:56.262Z,42.31
2022-11-01T01:52:26.263Z,42.34
2022-11-01T01:52:56.267Z,42.28
2022-11-01T01:53:26.275Z,42.34
2022-11-01T01:53:56.279Z,42.34
2022-11-01T01:54:26.292Z,42.34
2022-11-01T01:54:56.297Z,42.36
2022-11-01T01:55:26.300Z,42.37
2022-11-01T01:55:56.304Z,42.34
2022-11-01T01:56:26.308Z,42.35
2022-11-01T01:56:56.312Z,42.33
2022-11-01T01:57:26.322Z,42.33
2022-11-01T01:57:56.433Z,42.35
2022-11-01T01:58:26.448Z,42.39
2022-11-01T01:58:56.455Z,42.32
2022-11-01T01:59:26.498Z,42.35
2022-11-01T01:59:56.478Z,42.32
2022-11-01T02:00:26.475Z,42.35
2022-11-01T02:00:56.535Z,42.32
2022-11-01T02:01:26.651Z,42.33
2022-11-01T02:01:56.705Z,42.33
2022-11-01T02:02:26.619Z,42.36
2022-11-01T02:02:56.616Z,42.35
2022-11-01T02:03:26.629Z,42.33
2022-11-01T02:03:56.635Z,42.33
2022-11-01T02:04:26.633Z,42.33
2022-11-01T02:04:56.643Z,42.36
2022-11-01T02:05:26.651Z,42.35
2022-11-01T02:05:56.655Z,42.35
2022-11-01T02:06:26.680Z,42.36
2022-11-01T02:06:56.669Z,42.29
2022-11-01T02:07:26.678Z,42.32
2022-11-01T02:07:56.675Z,42.34
2022-11-01T02:08:26.684Z,42.33
2022-11-01T02:08:56.693Z,42.35
2022-11-01T02:09:29.406Z,42.36
2022-11-01T02:09:56.807Z,42.32
2022-11-01T02:10:26.831Z,42.33
2022-11-01T02:10:56.836Z,42.34
2022-11-01T02:11:26.834Z,42.29
2022-11-01T02:11:56.847Z,42.33
2022-11-01T02:12:26.847Z,42.35
2022-11-01T02:12:56.861Z,42.36
2022-11-01T02:13:26.858Z,42.36
2022-11-01T02:13:56.860Z,42.35
2022-11-01T02:14:26.880Z,42.33
2022-11-01T02:14:56.898Z,42.36
2022-11-01T02:15:26.901Z,42.33
2022-11-01T02:15:56.971Z,42.36
2022-11-01T02:16:27.056Z,42.33
2022-11-01T02:16:57.141Z,42.30
2022-11-01T02:17:27.221Z,42.29
2022-11-01T02:17:57.307Z,42.36
2022-11-01T02:18:27.398Z,42.35
2022-11-01T02:18:57.486Z,42.28
2022-11-01T02:19:27.561Z,42.39
2022-11-01T02:19:57.650Z,42.34
2022-11-01T02:20:27.735Z,42.33
2022-11-01T02:20:57.830Z,42.32
2022-11-01T02:21:27.910Z,42.32
2022-11-01T02:21:57.987Z,42.33
2022-11-01T02:22:28.068Z,42.35
2022-11-01T02:22:58.292Z,42.33
2022-11-01T02:23:28.202Z,42.33
2022-11-01T02:23:58.291Z,42.36
2022-11-01T02:24:28.379Z,42.35
2022-11-01T02:24:58.463Z,42.32
2022-11-01T02:25:28.560Z,42.37
2022-11-01T02:25:58.565Z,42.28
2022-11-01T02:26:28.573Z,42.32
2022-11-01T02:26:58.587Z,42.36
2022-11-01T02:27:28.588Z,42.34
2022-11-01T02:27:58.604Z,42.37
2022-11-01T02:28:28.606Z,42.35
2022-11-01T02:29:01.779Z,42.34
2022-11-01T02:29:28.711Z,42.30
2022-11-01T02:29:58.716Z,42.36
2022-11-01T02:30:28.745Z,42.33
2022-11-01T02:30:58.715Z,42.34
2022-11-01T02:31:28.727Z,42.33
2022-11-01T02:31:58.724Z,42.35
2022-11-01T02:32:28.727Z,42.33
2022-11-01T02:32:58.929Z,42.35
2022-11-01T02:33:28.738Z,42.34
2022-11-01T02:33:58.730Z,42.36
2022-11-01T02:34:28.737Z,42.33
2022-11-01T02:34:58.749Z,42.34
2022-11-01T02:35:28.752Z,42.37
2022-11-01T02:35:58.862Z,42.34
2022-11-01T02:36:28.865Z,42.36
2022-11-01T02:36:58.881Z,42.38
2022-11-01T02:37:28.894Z,42.30
2022-11-01T02:37:58.897Z,42.36
2022-11-01T02:38:28.895Z,42.32
2022-11-01T02:38:58.902Z,42.34
2022-11-01T02:39:28.900Z,42.30
2022-11-01T02:39:58.916Z,42.36
2022-11-01T02:40:28.914Z,42.30
2022-11-01T02:40:58.910Z,42.36
2022-11-01T02:41:28.912Z,42.33
2022-11-01T02:41:58.929Z,42.34
2022-11-01T02:42:28.930Z,42.31
2022-11-01T02:42:59.275Z,42.36
2022-11-01T02:43:29.004Z,42.34
2022-11-01T02:43:59.003Z,42.37
2022-11-01T02:44:29.007Z,42.34
2022-11-01T02:44:59.027Z,42.36
2022-11-01T02:45:29.122Z,42.37
2022-11-01T02:45:59.167Z,42.37
2022-11-01T02:46:29.156Z,42.32
2022-11-01T02:46:59.163Z,42.33
2022-11-01T02:47:29.176Z,42.37
2022-11-01T02:47:59.180Z,42.33
2022-11-01T02:48:29.293Z,42.34
2022-11-01T02:48:59.318Z,42.37
2022-11-01T02:49:29.325Z,42.30
2022-11-01T02:49:59.333Z,42.30
2022-11-01T02:50:29.444Z,42.37
2022-11-01T02:50:59.443Z,42.34
2022-11-01T02:51:29.455Z,42.31
2022-11-01T02:51:59.460Z,42.33
2022-11-01T02:52:29.467Z,42.33
2022-11-01T02:53:00.001Z,42.34
2022-11-01T02:53:29.577Z,42.37
2022-11-01T02:53:59.583Z,42.34
2022-11-01T02:54:29.591Z,42.34
2022-11-01T02:54:59.597Z,42.35
2022-11-01T02:55:30.087Z,42.35
2022-11-01T02:55:59.648Z,42.34
2022-11-01T02:56:29.653Z,42.35
2022-11-01T02:56:59.666Z,42.35
2022-11-01T02:57:29.680Z,42.37
2022-11-01T02:58:00.037Z,42.34
2022-11-01T02:58:29.726Z,42.33
2022-11-01T02:58:59.796Z,42.37
2022-11-01T02:59:29.804Z,42.36
2022-11-01T02:59:59.808Z,42.30
2022-11-01T03:00:29.817Z,42.31
2022-11-01T03:00:59.863Z,42.31
2022-11-01T03:01:30.098Z,42.30
2022-11-01T03:02:00.085Z,42.31
2022-11-01T03:02:29.945Z,42.30
2022-11-01T03:02:59.950Z,42.37
2022-11-01T03:03:29.957Z,42.34
2022-11-01T03:03:59.967Z,42.31
2022-11-01T03:04:29.999Z,42.34
2022-11-01T03:05:00.007Z,42.31
2022-11-01T03:05:30.017Z,42.30
2022-11-01T03:06:00.043Z,42.34
2022-11-01T03:06:30.075Z,42.33
2022-11-01T03:07:00.100Z,42.31
2022-11-01T03:07:30.120Z,42.38
2022-11-01T03:08:00.559Z,42.37
2022-11-01T03:08:30.186Z,42.31
2022-11-01T03:09:00.190Z,42.34
2022-11-01T03:09:30.208Z,42.36
2022-11-01T03:10:00.206Z,42.33
2022-11-01T03:10:30.205Z,42.36
2022-11-01T03:11:00.210Z,42.37
2022-11-01T03:11:30.222Z,42.35
2022-11-01T03:12:00.223Z,42.31
2022-11-01T03:12:30.243Z,42.37
2022-11-01T03:13:00.756Z,42.38
2022-11-01T03:13:30.243Z,42.35
2022-11-01T03:14:00.247Z,42.35
2022-11-01T03:14:30.279Z,42.35
2022-11-01T03:15:00.270Z,42.32
2022-11-01T03:15:30.268Z,42.34
2022-11-01T03:16:00.357Z,42.37
2022-11-01T03:16:30.438Z,42.34
2022-11-01T03:17:00.556Z,42.34
2022-11-01T03:17:30.601Z,42.34
2022-11-01T03:18:00.594Z,42.33
2022-11-01T03:18:30.679Z,42.34
2022-11-01T03:19:00.754Z,42.34
2022-11-01T03:19:30.837Z,42.33
2022-11-01T03:20:00.938Z,42.34
2022-11-01T03:20:31.026Z,42.36
2022-11-01T03:21:01.112Z,42.34
2022-11-01T03:21:31.189Z,42.38
2022-11-01T03:22:01.265Z,42.36
2022-11-01T03:22:31.346Z,42.36
2022-11-01T03:23:01.836Z,42.40
2022-11-01T03:23:31.517Z,42.35
2022-11-01T03:24:01.593Z,42.38
2022-11-01T03:24:31.677Z,42.35
2022-11-01T03:25:01.756Z,42.36
2022-11-01T03:25:31.849Z,42.38
2022-11-01T03:26:01.855Z,42.35
2022-11-01T03:26:31.848Z,42.35
2022-11-01T03:27:01.855Z,42.38
2022-11-01T03:27:31.860Z,42.35
2022-11-01T03:28:01.865Z,42.37
2022-11-01T03:28:31.872Z,42.38
2022-11-01T03:29:01.874Z,42.31
2022-11-01T03:29:31.874Z,42.34
2022-11-01T03:30:01.926Z,42.34
2022-11-01T03:30:31.917Z,42.36
2022-11-01T03:31:01.913Z,42.37
2022-11-01T03:31:31.938Z,42.35
2022-11-01T03:32:01.923Z,42.40
2022-11-01T03:32:31.973Z,42.40
2022-11-01T03:33:02.406Z,42.37
2022-11-01T03:33:31.988Z,42.38
2022-11-01T03:34:01.982Z,42.30
2022-11-01T03:34:31.990Z,42.35
2022-11-01T03:35:01.991Z,42.34
2022-11-01T03:35:32.005Z,42.34
2022-11-01T03:36:02.028Z,42.32
2022-11-01T03:36:32.022Z,42.35
2022-11-01T03:37:02.024Z,42.35
2022-11-01T03:37:32.030Z,42.37
2022-11-01T03:38:02.036Z,42.37
2022-11-01T03:38:32.040Z,42.35
2022-11-01T03:39:02.043Z,42.35
2022-11-01T03:39:32.048Z,42.40
2022-11-01T03:40:02.051Z,42.38
2022-11-01T03:40:32.064Z,42.36
2022-11-01T03:41:02.071Z,42.36
2022-11-01T03:41:32.076Z,42.38
2022-11-01T03:42:02.075Z,42.38
2022-11-01T03:42:32.078Z,42.32
2022-11-01T03:43:02.488Z,42.31
2022-11-01T03:43:32.154Z,42.38
2022-11-01T03:44:02.153Z,42.38
2022-11-01T03:44:32.161Z,42.32
2022-11-01T03:45:02.169Z,42.38
2022-11-01T03:45:32.185Z,42.40
2022-11-01T03:46:02.186Z,42.38
2022-11-01T03:46:32.195Z,42.38
2022-11-01T03:47:02.206Z,42.36
2022-11-01T03:47:32.219Z,42.38
2022-11-01T03:48:02.586Z,42.38
2022-11-01T03:48:32.318Z,42.40
2022-11-01T03:49:02.310Z,42.40
2022-11-01T03:49:32.313Z,42.41
2022-11-01T03:50:02.317Z,42.44
2022-11-01T03:50:32.331Z,42.45
2022-11-01T03:51:02.332Z,42.44
2022-11-01T03:51:32.328Z,42.41
2022-11-01T03:52:02.327Z,42.43
2022-11-01T03:52:32.340Z,42.44
2022-11-01T03:53:02.361Z,42.43
2022-11-01T03:53:32.366Z,42.40
2022-11-01T03:54:02.451Z,42.37
2022-11-01T03:54:32.512Z,42.39
2022-11-01T03:55:02.568Z,42.42
2022-11-01T03:55:32.581Z,42.44
2022-11-01T03:56:02.610Z,42.45
2022-11-01T03:56:32.667Z,42.41
2022-11-01T03:57:02.682Z,42.41
2022-11-01T03:57:32.696Z,42.40
2022-11-01T03:58:03.029Z,42.45
2022-11-01T03:58:32.747Z,42.40
2022-11-01T03:59:02.749Z,42.48
2022-11-01T03:59:32.760Z,42.43
2022-11-01T04:00:02.763Z,42.41
2022-11-01T04:00:32.777Z,42.45
2022-11-01T04:01:02.829Z,42.47
2022-11-01T04:01:32.958Z,42.41
2022-11-01T04:02:03.083Z,42.43
2022-11-01T04:02:32.932Z,42.41
2022-11-01T04:03:03.166Z,42.41
2022-11-01T04:03:32.993Z,42.41
2022-11-01T04:04:02.975Z,42.45
2022-11-01T04:04:32.973Z,42.43
2022-11-01T04:05:02.983Z,42.39
2022-11-01T04:05:32.990Z,42.40
2022-11-01T04:06:03.000Z,42.40
2022-11-01T04:06:32.999Z,42.41
2022-11-01T04:07:03.008Z,42.40
2022-11-01T04:07:33.012Z,42.37
2022-11-01T04:08:03.023Z,42.41
2022-11-01T04:08:33.029Z,42.43
2022-11-01T04:09:03.031Z,42.39
2022-11-01T04:09:33.046Z,42.39
2022-11-01T04:10:03.046Z,42.40
2022-11-01T04:10:33.052Z,42.40
2022-11-01T04:11:03.064Z,42.40
2022-11-01T04:11:33.062Z,42.40
2022-11-01T04:12:03.064Z,42.37
2022-11-01T04:12:33.066Z,42.40
2022-11-01T04:13:03.295Z,42.41
2022-11-01T04:13:33.084Z,42.38
2022-11-01T04:14:03.087Z,42.40
2022-11-01T04:14:33.093Z,42.43
2022-11-01T04:15:03.098Z,42.39
2022-11-01T04:15:33.089Z,42.43
2022-11-01T04:16:03.171Z,42.40
2022-11-01T04:16:33.255Z,42.45
2022-11-01T04:17:03.330Z,42.47
2022-11-01T04:17:33.413Z,42.41
2022-11-01T04:18:03.495Z,42.45
2022-11-01T04:18:33.628Z,42.42
2022-11-01T04:19:03.631Z,42.43
2022-11-01T04:19:33.688Z,42.47
2022-11-01T04:20:03.776Z,42.43
2022-11-01T04:20:33.867Z,42.43
2022-11-01T04:21:03.941Z,42.42
2022-11-01T04:21:34.017Z,42.42
2022-11-01T04:22:04.098Z,42.48
2022-11-01T04:22:34.187Z,42.42
2022-11-01T04:23:04.737Z,42.40
2022-11-01T04:23:34.323Z,42.45
2022-11-01T04:24:04.407Z,42.45
2022-11-01T04:24:34.500Z,42.48
2022-11-01T04:25:04.578Z,42.44
2022-11-01T04:25:34.668Z,42.47
2022-11-01T04:26:04.673Z,42.44
2022-11-01T04:26:34.671Z,42.47
2022-11-01T04:27:04.676Z,42.45
2022-11-01T04:27:34.684Z,42.46
2022-11-01T04:28:04.686Z,42.44
2022-11-01T04:28:34.690Z,42.42
2022-11-01T04:29:04.705Z,42.44
2022-11-01T04:29:34.717Z,42.44
2022-11-01T04:30:04.724Z,42.44
2022-11-01T04:30:34.721Z,42.47
2022-11-01T04:31:04.728Z,42.51
2022-11-01T04:31:34.729Z,42.47
2022-11-01T04:32:04.735Z,42.51
2022-11-01T04:32:34.737Z,42.44
2022-11-01T04:33:05.040Z,42.44
2022-11-01T04:33:34.748Z,42.41
2022-11-01T04:34:04.758Z,42.44
2022-11-01T04:34:34.786Z,42.45
2022-11-01T04:35:04.775Z,42.43
2022-11-01T04:35:34.759Z,42.39
2022-11-01T04:36:04.768Z,42.43
2022-11-01T04:36:34.769Z,42.42
2022-11-01T04:37:04.776Z,42.41
2022-11-01T04:37:34.888Z,42.44
2022-11-01T04:38:05.369Z,42.40
2022-11-01T04:38:34.970Z,42.43
2022-11-01T04:39:04.992Z,42.44
2022-11-01T04:39:34.982Z,42.42
2022-11-01T04:40:05.097Z,42.44
2022-11-01T04:40:35.098Z,42.42
2022-11-01T04:41:05.103Z,42.47
2022-11-01T04:41:35.112Z,42.45
2022-11-01T04:42:05.112Z,42.48
2022-11-01T04:42:35.109Z,42.48
2022-11-01T04:43:05.120Z,42.44
2022-11-01T04:43:35.127Z,42.45
2022-11-01T04:44:05.240Z,42.47
2022-11-01T04:44:35.240Z,42.45
2022-11-01T04:45:05.249Z,42.46
2022-11-01T04:45:35.255Z,42.51
2022-11-01T04:46:05.257Z,42.42
2022-11-01T04:46:35.257Z,42.40
2022-11-01T04:47:05.253Z,42.47
2022-11-01T04:47:35.257Z,42.42
2022-11-01T04:48:05.573Z,42.45
2022-11-01T04:48:35.315Z,42.45
2022-11-01T04:49:05.319Z,42.47
2022-11-01T04:49:35.325Z,42.47
2022-11-01T04:50:05.344Z,42.48
2022-11-01T04:50:35.321Z,42.41
2022-11-01T04:51:05.323Z,42.50
2022-11-01T04:51:35.361Z,42.47
2022-11-01T04:52:05.335Z,42.45
2022-11-01T04:52:35.339Z,42.46
2022-11-01T04:53:05.710Z,42.44
2022-11-01T04:53:35.453Z,42.47
2022-11-01T04:54:05.453Z,42.47
2022-11-01T04:54:35.452Z,42.47
2022-11-01T04:55:05.456Z,42.49
2022-11-01T04:55:35.450Z,42.44
2022-11-01T04:56:05.463Z,42.46
2022-11-01T04:56:35.465Z,42.44
2022-11-01T04:57:05.465Z,42.48
2022-11-01T04:57:35.575Z,42.51
2022-11-01T04:58:05.589Z,42.46
2022-11-01T04:58:35.769Z,42.48
2022-11-01T04:59:05.703Z,42.46
2022-11-01T04:59:35.700Z,42.45
2022-11-01T05:00:05.702Z,42.48
2022-11-01T05:00:35.856Z,42.48
2022-11-01T05:01:05.970Z,42.49
2022-11-01T05:01:35.923Z,42.45
2022-11-01T05:02:05.859Z,42.51
2022-11-01T05:02:35.874Z,42.48
2022-11-01T05:03:06.404Z,42.51
2022-11-01T05:03:35.982Z,42.51
2022-11-01T05:04:05.985Z,42.46
2022-11-01T05:04:35.985Z,42.46
2022-11-01T05:05:05.987Z,42.49
2022-11-01T05:05:36.011Z,42.45
2022-11-01T05:06:06.002Z,42.49
2022-11-01T05:06:35.999Z,42.47
2022-11-01T05:07:06.009Z,42.50
2022-11-01T05:07:36.119Z,42.45
2022-11-01T05:08:06.125Z,42.48
2022-11-01T05:08:36.130Z,42.49
2022-11-01T05:09:06.160Z,42.47
2022-11-01T05:09:36.149Z,42.47
2022-11-01T05:10:06.154Z,42.48
2022-11-01T05:10:36.156Z,42.42
2022-11-01T05:11:06.164Z,42.47
2022-11-01T05:11:36.177Z,42.52
2022-11-01T05:12:06.179Z,42.45
2022-11-01T05:12:36.179Z,42.45
2022-11-01T05:13:06.433Z,42.48
2022-11-01T05:13:36.205Z,42.48
2022-11-01T05:14:06.221Z,42.48
2022-11-01T05:14:36.208Z,42.44
2022-11-01T05:15:06.203Z,42.48
2022-11-01T05:15:39.940Z,42.48
2022-11-01T05:16:21.623Z,42.48
2022-11-01T05:16:36.459Z,42.47
2022-11-01T05:17:06.535Z,42.53
2022-11-01T05:17:36.612Z,42.52
2022-11-01T05:18:06.708Z,42.56
2022-11-01T05:18:36.792Z,42.53
2022-11-01T05:19:06.877Z,42.52
2022-11-01T05:19:36.952Z,42.53
2022-11-01T05:20:07.032Z,42.53
2022-11-01T05:20:37.108Z,42.50
2022-11-01T05:21:07.221Z,42.52
2022-11-01T05:21:37.281Z,42.53
2022-11-01T05:22:07.361Z,42.50
2022-11-01T05:22:37.439Z,42.52
2022-11-01T05:23:07.525Z,42.49
2022-11-01T05:23:37.619Z,42.50
2022-11-01T05:24:07.698Z,42.49
2022-11-01T05:24:37.818Z,42.48
2022-11-01T05:25:07.782Z,42.47
2022-11-01T05:25:38.405Z,42.52
2022-11-01T05:26:07.947Z,42.47
2022-11-01T05:26:37.943Z,42.49
2022-11-01T05:27:07.954Z,42.49
2022-11-01T05:27:37.961Z,42.48
2022-11-01T05:28:07.962Z,42.46
2022-11-01T05:28:37.968Z,42.48
2022-11-01T05:29:13.418Z,42.45
2022-11-01T05:29:37.967Z,42.50
2022-11-01T05:30:07.976Z,42.49
2022-11-01T05:30:37.981Z,42.48
2022-11-01T05:31:07.990Z,42.49
2022-11-01T05:31:37.987Z,42.50
2022-11-01T05:32:07.985Z,42.50
2022-11-01T05:32:37.997Z,42.49
2022-11-01T05:33:08.013Z,42.45
2022-11-01T05:33:38.020Z,42.49
2022-11-01T05:34:08.027Z,42.46
2022-11-01T05:34:38.035Z,42.46
2022-11-01T05:35:08.042Z,42.53
2022-11-01T05:35:38.053Z,42.45
2022-11-01T05:36:08.045Z,42.48
2022-11-01T05:36:38.073Z,42.53
2022-11-01T05:37:08.050Z,42.46
2022-11-01T05:37:38.057Z,42.50
2022-11-01T05:38:08.065Z,42.47
2022-11-01T05:38:38.077Z,42.50
2022-11-01T05:39:08.081Z,42.43
2022-11-01T05:39:38.115Z,42.48
2022-11-01T05:40:08.129Z,42.48
2022-11-01T05:40:38.148Z,42.50
2022-11-01T05:41:08.175Z,42.52
2022-11-01T05:41:38.172Z,42.49
2022-11-01T05:42:08.192Z,42.53
2022-11-01T05:42:38.193Z,42.50
2022-11-01T05:43:08.193Z,42.49
2022-11-01T05:43:38.205Z,42.53
2022-11-01T05:44:08.202Z,42.52
2022-11-01T05:44:38.218Z,42.43
2022-11-01T05:45:08.221Z,42.45
2022-11-01T05:45:38.232Z,42.43
2022-11-01T05:46:08.233Z,42.42
2022-11-01T05:46:38.231Z,42.45
2022-11-01T05:47:08.240Z,42.45
2022-11-01T05:47:38.254Z,42.51
2022-11-01T05:48:08.259Z,42.48
2022-11-01T05:48:38.263Z,42.45
2022-11-01T05:49:08.263Z,42.47
2022-11-01T05:49:38.266Z,42.49
2022-11-01T05:50:08.278Z,42.52
2022-11-01T05:50:38.288Z,42.53
2022-11-01T05:51:08.290Z,42.50
2022-11-01T05:51:38.286Z,42.49
2022-11-01T05:52:08.431Z,42.55
2022-11-01T05:52:38.422Z,42.53
2022-11-01T05:53:08.423Z,42.47
2022-11-01T05:53:38.430Z,42.55
2022-11-01T05:54:08.432Z,42.50
2022-11-01T05:54:38.430Z,42.47
2022-11-01T05:55:08.436Z,42.56
2022-11-01T05:55:38.436Z,42.54
2022-11-01T05:56:08.439Z,42.52
2022-11-01T05:56:38.428Z,42.53
2022-11-01T05:57:08.431Z,42.54
2022-11-01T05:57:38.519Z,42.50
2022-11-01T05:58:08.526Z,42.53
2022-11-01T05:58:38.532Z,42.56
2022-11-01T05:59:08.528Z,42.54
2022-11-01T05:59:38.526Z,42.56
2022-11-01T06:00:08.538Z,42.52
2022-11-01T06:00:38.542Z,42.53
2022-11-01T06:01:08.602Z,42.53
2022-11-01T06:01:38.691Z,42.52
2022-11-01T06:02:08.779Z,42.50
2022-11-01T06:02:38.857Z,42.57
2022-11-01T06:03:08.868Z,42.57
2022-11-01T06:03:38.875Z,42.54
2022-11-01T06:04:08.878Z,42.59
2022-11-01T06:04:38.881Z,42.52
2022-11-01T06:05:08.887Z,42.54
2022-11-01T06:05:38.887Z,42.54
2022-11-01T06:06:08.897Z,42.55
2022-11-01T06:06:38.895Z,42.52
2022-11-01T06:07:08.895Z,42.53
2022-11-01T06:07:38.921Z,42.53
2022-11-01T06:08:08.901Z,42.47
2022-11-01T06:08:38.916Z,42.50
2022-11-01T06:09:08.920Z,42.56
2022-11-01T06:09:38.937Z,42.52
2022-11-01T06:10:08.933Z,42.51
2022-11-01T06:10:38.943Z,42.53
2022-11-01T06:11:08.948Z,42.49
2022-11-01T06:11:41.632Z,42.47
2022-11-01T06:12:09.007Z,42.50
2022-11-01T06:12:39.011Z,42.49
2022-11-01T06:13:09.022Z,42.50
2022-11-01T06:13:39.039Z,42.51
2022-11-01T06:14:09.050Z,42.49
2022-11-01T06:14:39.053Z,42.47
2022-11-01T06:15:09.053Z,42.52
2022-11-01T06:15:39.834Z,42.50
2022-11-01T06:16:09.198Z,42.49
2022-11-01T06:16:39.271Z,42.53
2022-11-01T06:17:09.354Z,42.49
2022-11-01T06:17:39.442Z,42.54
2022-11-01T06:18:09.540Z,42.50
2022-11-01T06:18:39.611Z,42.54
2022-11-01T06:19:09.691Z,42.54
2022-11-01T06:19:39.771Z,42.54
2022-11-01T06:20:09.852Z,42.51
2022-11-01T06:20:39.936Z,42.50
2022-11-01T06:21:10.011Z,42.49
2022-11-01T06:21:40.088Z,42.53
2022-11-01T06:22:10.177Z,42.51
2022-11-01T06:22:40.260Z,42.53
2022-11-01T06:23:10.364Z,42.49
2022-11-01T06:23:40.418Z,42.54
2022-11-01T06:24:10.495Z,42.48
2022-11-01T06:24:40.579Z,42.50
2022-11-01T06:25:10.674Z,42.52
2022-11-01T06:25:40.778Z,42.51
2022-11-01T06:26:10.774Z,42.52
2022-11-01T06:26:40.785Z,42.51
2022-11-01T06:27:12.781Z,42.52